createdAt,value
2017-11-10T00:00:20.130Z,80.87
2017-11-10T00:02:48.487Z,82.01
2017-11-10T00:05:17.543Z,82.32
2017-11-10T00:07:47.538Z,83.02
2017-11-10T00:10:16.162Z,83.19
2017-11-10T00:12:44.555Z,82.63
2017-11-10T00:15:14.507Z,81.94
2017-11-10T00:17:42.884Z,82.85
2017-11-10T00:20:11.261Z,82.43
2017-11-10T00:22:39.636Z,82.59
2017-11-10T00:25:08.014Z,82.19
2017-11-10T00:27:36.539Z,82.37
2017-11-10T00:30:05.607Z,81.87
2017-11-10T00:32:34.070Z,82.70
2017-11-10T00:35:02.704Z,82.22
2017-11-10T00:37:32.208Z,81.50
2017-11-10T00:40:00.582Z,81.77
2017-11-10T00:42:29.034Z,80.88
2017-11-10T00:44:57.412Z,81.44
2017-11-10T00:47:25.840Z,81.97
2017-11-10T00:49:54.396Z,81.32
2017-11-10T00:52:23.447Z,80.87
2017-11-10T00:54:52.630Z,81.32
2017-11-10T00:57:21.194Z,81.17
2017-11-10T00:59:50.207Z,81.44
2017-11-10T01:02:19.355Z,81.10
2017-11-10T01:04:47.889Z,80.45
2017-11-10T01:07:17.134Z,81.05
2017-11-10T01:09:45.473Z,80.64
2017-11-10T01:12:14.945Z,80.37
2017-11-10T01:14:43.694Z,80.44
2017-11-10T01:17:13.022Z,81.01
2017-11-10T01:19:42.319Z,81.80
2017-11-10T01:22:16.550Z,81.64
2017-11-10T01:24:45.056Z,80.92
2017-11-10T01:27:13.428Z,80.79
2017-11-10T01:29:42.270Z,80.99
2017-11-10T01:32:10.819Z,81.09
2017-11-10T01:34:39.204Z,81.64
2017-11-10T01:37:07.604Z,82.15
2017-11-10T01:39:36.847Z,82.73
2017-11-10T01:42:05.234Z,82.39
2017-11-10T01:44:34.119Z,82.48
2017-11-10T01:47:02.671Z,82.49
2017-11-10T01:49:31.001Z,82.16
2017-11-10T01:52:00.383Z,83.09
2017-11-10T01:54:29.853Z,83.69
2017-11-10T01:56:58.203Z,82.89
2017-11-10T01:59:26.572Z,82.33
2017-11-10T02:01:58.910Z,82.14
2017-11-10T02:04:27.260Z,83.83
2017-11-10T02:06:56.655Z,83.13
2017-11-10T02:09:25.104Z,83.31
2017-11-10T02:11:55.327Z,83.42
2017-11-10T02:14:23.848Z,82.76
2017-11-10T02:16:52.203Z,82.38
2017-11-10T02:19:21.322Z,82.93
2017-11-10T02:21:49.717Z,83.79
2017-11-10T02:24:18.046Z,83.85
2017-11-10T02:26:47.172Z,83.71
2017-11-10T02:29:16.667Z,83.59
2017-11-10T02:31:45.854Z,84.10
2017-11-10T02:34:15.130Z,83.06
2017-11-10T02:36:44.805Z,83.60
2017-11-10T02:39:13.177Z,83.38
2017-11-10T02:41:41.543Z,82.93
2017-11-10T02:44:09.906Z,82.97
2017-11-10T02:46:39.014Z,82.59
2017-11-10T02:49:07.355Z,83.01
2017-11-10T02:51:35.723Z,82.81
2017-11-10T02:54:04.057Z,82.72
2017-11-10T02:56:32.398Z,82.19
2017-11-10T02:59:01.220Z,81.99
2017-11-10T03:01:29.567Z,81.37
2017-11-10T03:03:57.927Z,81.52
2017-11-10T03:06:27.088Z,81.81
2017-11-10T03:08:55.438Z,80.90
2017-11-10T03:11:25.162Z,81.06
2017-11-10T03:13:53.555Z,80.70
2017-11-10T03:16:22.436Z,81.33
2017-11-10T03:18:50.796Z,82.21
2017-11-10T03:21:21.050Z,81.16
2017-11-10T03:23:49.668Z,80.87
2017-11-10T03:26:18.025Z,82.22
2017-11-10T03:28:46.386Z,81.69
2017-11-10T03:31:14.769Z,80.57
2017-11-10T03:33:43.119Z,81.37
2017-11-10T03:36:12.312Z,80.71
2017-11-10T03:38:40.691Z,80.16
2017-11-10T03:41:09.842Z,81.09
2017-11-10T03:43:38.767Z,81.26
2017-11-10T03:46:07.126Z,81.00
2017-11-10T03:48:35.464Z,81.59
2017-11-10T03:51:04.481Z,81.53
2017-11-10T03:53:32.855Z,81.06
2017-11-10T03:56:01.214Z,82.09
2017-11-10T03:58:30.311Z,81.67
2017-11-10T04:00:58.646Z,82.68
2017-11-10T04:03:26.994Z,82.12
2017-11-10T04:05:55.445Z,81.52
2017-11-10T04:08:23.786Z,80.93
2017-11-10T04:10:52.145Z,80.86
2017-11-10T04:13:20.513Z,81.15
2017-11-10T04:15:48.874Z,81.27
2017-11-10T04:18:17.890Z,80.85
2017-11-10T04:20:46.289Z,80.91
2017-11-10T04:23:14.912Z,80.54
2017-11-10T04:25:43.978Z,79.92
2017-11-10T04:28:12.411Z,80.06
2017-11-10T04:30:42.431Z,79.82
2017-11-10T04:33:11.428Z,79.25
2017-11-10T04:35:40.018Z,79.50
2017-11-10T04:38:08.371Z,79.82
2017-11-10T04:40:36.840Z,79.49
2017-11-10T04:43:05.997Z,78.95
2017-11-10T04:45:35.174Z,78.69
2017-11-10T04:48:03.760Z,78.63
2017-11-10T04:50:33.647Z,78.55
2017-11-10T04:53:02.628Z,78.10
2017-11-10T04:55:30.976Z,79.09
2017-11-10T04:58:00.154Z,78.88
2017-11-10T05:00:28.516Z,78.78
2017-11-10T05:05:28.031Z,79.21
2017-11-10T05:07:56.588Z,79.86
2017-11-10T05:10:24.943Z,79.86
2017-11-10T05:12:53.992Z,80.40
2017-11-10T05:15:22.592Z,80.41
2017-11-10T05:17:50.926Z,79.81
2017-11-10T05:20:19.313Z,80.32
2017-11-10T05:22:47.654Z,81.38
2017-11-10T05:25:16.879Z,81.02
2017-11-10T05:27:46.519Z,80.32
2017-11-10T05:30:15.626Z,80.05
2017-11-10T05:32:44.446Z,80.92
2017-11-10T05:35:13.031Z,81.50
2017-11-10T05:37:41.387Z,81.81
2017-11-10T05:40:10.422Z,81.07
2017-11-10T05:42:39.424Z,81.32
2017-11-10T05:45:09.134Z,81.21
2017-11-10T05:47:37.478Z,82.77
2017-11-10T05:50:05.855Z,81.62
2017-11-10T05:52:34.205Z,80.89
2017-11-10T05:55:02.550Z,80.94
2017-11-10T05:57:32.642Z,80.76
2017-11-10T06:00:00.985Z,81.84
2017-11-10T06:02:29.363Z,81.48
2017-11-10T06:04:58.350Z,81.39
2017-11-10T06:07:26.687Z,81.99
2017-11-10T06:09:55.991Z,81.81
2017-11-10T06:12:24.405Z,82.09
2017-11-10T06:14:53.539Z,83.47
2017-11-10T06:17:21.878Z,81.80
2017-11-10T06:19:51.258Z,82.20
2017-11-10T06:22:20.379Z,82.49
2017-11-10T06:24:48.723Z,82.69
2017-11-10T06:27:17.100Z,81.59
2017-11-10T06:29:46.433Z,81.31
2017-11-10T06:32:14.985Z,82.12
2017-11-10T06:34:43.640Z,81.79
2017-11-10T06:37:11.981Z,82.24
2017-11-10T06:39:41.072Z,81.90
2017-11-10T06:42:09.520Z,81.44
2017-11-10T06:44:37.871Z,81.95
2017-11-10T06:47:07.433Z,81.31
2017-11-10T06:49:36.575Z,81.65
2017-11-10T06:52:04.915Z,81.71
2017-11-10T06:54:33.256Z,81.32
2017-11-10T06:57:01.639Z,80.67
2017-11-10T06:59:29.977Z,81.33
2017-11-10T07:01:58.303Z,80.98
2017-11-10T07:04:26.826Z,80.97
2017-11-10T07:06:55.285Z,80.77
2017-11-10T07:09:24.288Z,81.28
2017-11-10T07:11:52.664Z,80.92
2017-11-10T07:14:21.777Z,81.47
2017-11-10T07:16:51.478Z,80.84
2017-11-10T07:19:20.249Z,80.35
2017-11-10T07:21:48.594Z,79.96
2017-11-10T07:24:16.942Z,80.16
2017-11-10T07:26:46.136Z,80.94
2017-11-10T07:29:15.027Z,81.08
2017-11-10T07:31:43.425Z,79.77
2017-11-10T07:34:11.835Z,80.14
2017-11-10T07:36:40.179Z,79.79
2017-11-10T07:39:08.576Z,78.91
2017-11-10T07:41:37.864Z,79.36
2017-11-10T07:44:06.223Z,80.20
2017-11-10T07:46:34.816Z,80.61
2017-11-10T07:49:04.459Z,80.35
2017-11-10T07:51:33.193Z,81.10
2017-11-10T07:54:03.346Z,80.42
2017-11-10T07:56:31.734Z,80.96
2017-11-10T07:59:00.127Z,80.41
2017-11-10T08:01:29.195Z,81.16
2017-11-10T08:04:01.543Z,79.95
2017-11-10T08:06:29.886Z,79.75
2017-11-10T08:08:59.189Z,80.20
2017-11-10T08:11:28.250Z,80.16
2017-11-10T08:13:58.143Z,80.38
2017-11-10T08:16:26.497Z,80.36
2017-11-10T08:18:55.651Z,80.91
2017-11-10T08:21:24.475Z,79.94
2017-11-10T08:23:54.664Z,80.33
2017-11-10T08:26:23.042Z,80.22
2017-11-10T08:28:51.719Z,79.99
2017-11-10T08:31:20.295Z,79.32
2017-11-10T08:33:49.190Z,78.44
2017-11-10T08:36:17.524Z,79.31
2017-11-10T08:38:46.637Z,79.86
2017-11-10T08:41:15.698Z,78.55
2017-11-10T08:43:44.073Z,77.97
2017-11-10T08:46:13.292Z,77.99
2017-11-10T08:48:43.227Z,78.04
2017-11-10T08:51:12.450Z,78.10
2017-11-10T08:53:40.798Z,79.20
2017-11-10T08:56:09.781Z,79.46
2017-11-10T08:58:38.881Z,79.75
2017-11-10T09:01:07.276Z,79.84
2017-11-10T09:03:35.926Z,79.38
2017-11-10T09:06:04.287Z,79.63
2017-11-10T09:08:32.643Z,79.53
2017-11-10T09:11:01.018Z,79.37
2017-11-10T09:13:29.771Z,79.64
2017-11-10T09:15:59.583Z,79.48
2017-11-10T09:18:28.666Z,78.54
2017-11-10T09:20:58.020Z,79.82
2017-11-10T09:23:26.738Z,79.55
2017-11-10T09:25:55.096Z,79.76
2017-11-10T09:28:28.696Z,78.63
2017-11-10T09:31:04.234Z,78.87
2017-11-10T09:33:45.257Z,77.83
2017-11-10T09:36:20.358Z,79.50
2017-11-10T09:42:19.240Z,79.32
2017-11-10T09:44:47.586Z,79.62
2017-11-10T09:50:42.047Z,79.19
2017-11-10T09:53:11.773Z,78.98
2017-11-10T09:55:43.438Z,78.99
2017-11-10T10:01:42.595Z,79.36
2017-11-10T10:04:13.197Z,78.41
2017-11-10T10:06:44.274Z,77.62
2017-11-10T10:12:21.356Z,76.24
2017-11-10T10:18:02.084Z,75.13
2017-11-10T10:20:34.867Z,76.26
2017-11-10T10:23:03.218Z,75.10
2017-11-10T10:25:32.348Z,75.21
2017-11-10T10:28:00.954Z,74.90
2017-11-10T10:30:29.918Z,73.81
2017-11-10T10:32:58.259Z,74.63
2017-11-10T10:35:26.692Z,75.15
2017-11-10T10:37:55.055Z,75.18
2017-11-10T10:40:24.298Z,76.09
2017-11-10T10:42:53.649Z,76.20
2017-11-10T10:45:22.001Z,75.86
2017-11-10T10:47:50.357Z,75.99
2017-11-10T10:50:18.930Z,76.87
2017-11-10T10:52:48.750Z,77.10
2017-11-10T10:55:17.103Z,76.51
2017-11-10T10:57:46.104Z,76.29
2017-11-10T11:00:14.454Z,75.13
2017-11-10T11:02:42.855Z,75.28
2017-11-10T11:05:11.238Z,75.09
2017-11-10T11:07:39.599Z,74.78
2017-11-10T11:10:07.953Z,74.40
2017-11-10T11:12:37.871Z,73.49
2017-11-10T11:15:07.492Z,74.47
2017-11-10T11:17:36.596Z,75.12
2017-11-10T11:20:05.833Z,75.05
2017-11-10T11:22:34.387Z,74.29
2017-11-10T11:25:02.754Z,73.85
2017-11-10T11:27:31.347Z,72.75
2017-11-10T11:29:59.707Z,72.49
2017-11-10T11:32:28.094Z,71.87
2017-11-10T11:34:57.279Z,71.53
2017-11-10T11:37:26.403Z,71.23
2017-11-10T11:39:54.754Z,71.59
2017-11-10T11:42:24.125Z,71.84
2017-11-10T11:44:52.750Z,71.89
2017-11-10T11:47:21.868Z,71.23
2017-11-10T11:49:50.256Z,73.77
2017-11-10T11:52:18.989Z,72.77
2017-11-10T11:54:47.354Z,73.22
2017-11-10T11:57:16.366Z,74.15
2017-11-10T11:59:44.715Z,75.04
2017-11-10T12:02:13.391Z,74.95
2017-11-10T12:04:42.468Z,74.39
2017-11-10T12:07:11.152Z,74.51
2017-11-10T12:09:41.053Z,74.45
2017-11-10T20:21:09.749Z,75.63
2017-11-10T20:23:38.559Z,75.20
2017-11-10T20:26:06.910Z,74.80
2017-11-10T20:28:35.502Z,74.17
2017-11-10T20:31:03.844Z,74.94
2017-11-10T20:33:32.231Z,74.64
2017-11-10T20:36:01.680Z,75.04
2017-11-10T20:38:30.023Z,74.59
2017-11-10T20:40:59.487Z,75.56
2017-11-10T20:43:28.925Z,76.29
2017-11-10T20:45:58.303Z,76.62
2017-11-10T20:48:26.921Z,76.58
2017-11-10T20:50:55.500Z,76.06
2017-11-10T20:53:23.856Z,76.30
2017-11-10T20:55:52.224Z,75.99
2017-11-10T20:58:21.166Z,76.02
2017-11-10T21:00:49.518Z,76.05
2017-11-10T21:03:18.761Z,76.30
2017-11-10T21:05:47.176Z,76.27
2017-11-10T21:08:16.337Z,76.04
2017-11-10T21:10:45.208Z,75.63
2017-11-10T21:13:14.450Z,75.76
2017-11-10T21:15:43.505Z,75.53
2017-11-10T21:18:11.869Z,75.33
2017-11-10T21:20:41.562Z,75.19
2017-11-10T21:23:10.478Z,75.59
2017-11-10T21:25:38.847Z,75.20
2017-11-10T21:28:08.063Z,74.88
2017-11-10T21:30:37.385Z,74.82
2017-11-10T21:33:05.731Z,75.77
2017-11-10T21:35:34.103Z,75.73
2017-11-10T21:38:02.464Z,75.96
2017-11-10T21:40:31.681Z,76.09
2017-11-10T21:43:01.068Z,76.48
2017-11-10T21:45:30.554Z,76.53
2017-11-10T21:47:59.014Z,76.83
2017-11-10T21:50:27.818Z,77.75
2017-11-10T21:52:57.050Z,77.65
2017-11-10T21:55:26.199Z,77.77
2017-11-10T21:57:54.710Z,78.15
2017-11-10T22:00:23.072Z,77.57
2017-11-10T22:02:51.426Z,77.53
2017-11-10T22:05:19.797Z,78.04
2017-11-10T22:07:48.913Z,77.73
2017-11-10T22:10:17.232Z,78.19
2017-11-10T22:12:45.748Z,77.66
2017-11-10T22:15:14.081Z,77.96
2017-11-10T22:17:42.424Z,78.08
2017-11-10T22:20:10.835Z,78.12
2017-11-10T22:22:39.859Z,79.06
2017-11-10T22:25:11.394Z,78.88
2017-11-10T22:27:39.791Z,79.37
2017-11-10T22:30:08.899Z,78.52
2017-11-10T22:32:37.971Z,79.43
2017-11-10T22:35:06.552Z,79.29
2017-11-10T22:37:34.874Z,79.14
2017-11-10T22:40:03.954Z,80.06
2017-11-10T22:42:32.340Z,79.95
2017-11-10T22:45:00.711Z,79.76
2017-11-10T22:47:29.817Z,79.95
2017-11-10T22:49:59.351Z,79.75
2017-11-10T22:52:27.985Z,79.56
2017-11-10T22:54:57.103Z,78.99
2017-11-10T22:57:25.588Z,78.80
2017-11-10T22:59:53.963Z,78.67
2017-11-10T23:02:22.309Z,77.80
2017-11-10T23:04:50.794Z,78.15
2017-11-10T23:07:19.138Z,78.05
2017-11-10T23:09:47.514Z,77.43
2017-11-10T23:12:15.935Z,76.31
2017-11-10T23:14:44.301Z,77.46
2017-11-10T23:17:12.668Z,76.99
2017-11-10T23:19:42.212Z,75.99
2017-11-10T23:22:10.557Z,75.35
2017-11-10T23:24:39.245Z,74.64
2017-11-10T23:27:08.480Z,74.56
2017-11-10T23:29:36.837Z,74.79
2017-11-10T23:32:05.762Z,75.08
2017-11-10T23:34:34.174Z,75.69
2017-11-10T23:37:03.486Z,75.49
2017-11-10T23:39:32.279Z,75.05
2017-11-10T23:42:00.894Z,75.51
2017-11-10T23:44:29.287Z,75.15
2017-11-10T23:46:59.023Z,76.16
2017-11-10T23:49:27.946Z,75.42
2017-11-10T23:51:56.326Z,75.36
2017-11-10T23:54:24.725Z,75.45
2017-11-10T23:56:54.228Z,76.00
2017-11-10T23:59:22.618Z,75.33
